createdAt,value
2023-10-06T00:00:45.577Z,100.00
2023-10-06T00:03:32.764Z,100.00
2023-10-06T00:05:59.694Z,100.00
2023-10-06T00:08:41.885Z,100.00
2023-10-06T00:11:12.601Z,100.00
2023-10-06T00:13:39.955Z,100.00
2023-10-06T00:16:08.749Z,100.00
2023-10-06T00:18:38.861Z,100.00
2023-10-06T00:21:08.735Z,100.00
2023-10-06T00:23:40.240Z,100.00
2023-10-06T00:26:10.408Z,100.00
2023-10-06T00:28:37.866Z,100.00
2023-10-06T00:31:09.812Z,100.00
2023-10-06T00:33:42.661Z,100.00
2023-10-06T00:36:15.826Z,100.00
2023-10-06T00:38:46.924Z,100.00
2023-10-06T00:41:17.254Z,100.00
2023-10-06T00:43:48.203Z,100.00
2023-10-06T00:46:17.871Z,100.00
2023-10-06T00:48:46.930Z,100.00
2023-10-06T00:51:20.923Z,100.00
2023-10-06T00:53:49.164Z,100.00
2023-10-06T00:56:17.140Z,100.00
2023-10-06T00:58:44.753Z,100.00
2023-10-06T01:01:18.495Z,100.00
2023-10-06T01:04:01.338Z,100.00
2023-10-06T01:06:36.121Z,100.00
2023-10-06T01:09:18.229Z,100.00
2023-10-06T01:11:52.841Z,100.00
2023-10-06T01:14:28.495Z,100.00
2023-10-06T01:17:16.147Z,100.00
2023-10-06T01:19:49.703Z,100.00
2023-10-06T01:22:30.003Z,100.00
2023-10-06T01:24:59.531Z,100.00
2023-10-06T01:27:29.322Z,100.00
2023-10-06T01:30:15.929Z,100.00
2023-10-06T01:32:46.470Z,100.00
2023-10-06T01:35:16.627Z,100.00
2023-10-06T01:37:44.849Z,100.00
2023-10-06T01:40:25.634Z,100.00
2023-10-06T01:42:53.238Z,100.00
2023-10-06T01:45:23.027Z,100.00
2023-10-06T01:47:58.438Z,100.00
2023-10-06T01:50:28.801Z,100.00
2023-10-06T01:53:00.010Z,100.00
2023-10-06T01:55:27.215Z,100.00
2023-10-06T01:57:55.451Z,100.00
2023-10-06T02:00:32.972Z,100.00
2023-10-06T02:03:00.089Z,100.00
2023-10-06T02:05:28.101Z,100.00
2023-10-06T02:08:01.947Z,100.00
2023-10-06T02:10:29.201Z,100.00
2023-10-06T02:12:56.657Z,100.00
2023-10-06T02:15:23.839Z,100.00
2023-10-06T02:17:51.950Z,100.00
2023-10-06T02:20:25.378Z,100.00
2023-10-06T02:23:02.431Z,100.00
2023-10-06T02:25:30.407Z,100.00
2023-10-06T02:28:01.062Z,100.00
2023-10-06T02:30:45.550Z,100.00
2023-10-06T02:33:12.727Z,100.00
2023-10-06T02:35:47.960Z,100.00
2023-10-06T02:38:16.533Z,100.00
2023-10-06T02:43:39.170Z,100.00
2023-10-06T02:46:09.966Z,100.00
2023-10-06T02:48:38.535Z,100.00
2023-10-06T02:51:08.094Z,100.00
2023-10-06T02:53:36.545Z,100.00
2023-10-06T02:56:10.228Z,100.00
2023-10-06T02:58:37.178Z,100.00
2023-10-06T03:01:05.645Z,100.00
2023-10-06T03:03:35.173Z,100.00
2023-10-06T03:06:08.567Z,100.00
2023-10-06T03:08:36.753Z,100.00
2023-10-06T03:11:04.979Z,100.00
2023-10-06T03:13:37.218Z,100.00
2023-10-06T03:16:16.699Z,100.00
2023-10-06T03:18:45.898Z,100.00
2023-10-06T03:21:13.172Z,100.00
2023-10-06T03:23:45.276Z,100.00
2023-10-06T03:26:35.150Z,100.00
2023-10-06T03:29:04.441Z,100.00
2023-10-06T03:31:47.794Z,100.00
2023-10-06T03:34:17.589Z,100.00
2023-10-06T03:37:06.147Z,100.00
2023-10-06T03:39:39.739Z,100.00
2023-10-06T03:42:12.502Z,100.00
2023-10-06T03:44:39.935Z,100.00
2023-10-06T03:47:09.504Z,100.00
2023-10-06T03:49:36.688Z,100.00
2023-10-06T03:52:05.701Z,100.00
2023-10-06T03:54:32.674Z,100.00
2023-10-06T03:56:59.818Z,100.00
2023-10-06T03:59:26.779Z,100.00
2023-10-06T04:01:54.060Z,100.00
2023-10-06T04:04:23.932Z,100.00
2023-10-06T04:06:51.730Z,100.00
2023-10-06T04:09:21.273Z,100.00
2023-10-06T04:11:48.414Z,100.00
2023-10-06T04:14:15.456Z,100.00
2023-10-06T04:16:48.319Z,100.00
2023-10-06T04:19:18.240Z,100.00
2023-10-06T04:21:45.389Z,100.00
2023-10-06T04:24:12.278Z,100.00
2023-10-06T04:26:40.935Z,100.00
2023-10-06T04:29:10.500Z,100.00
2023-10-06T04:31:38.273Z,100.00
2023-10-06T04:34:05.453Z,100.00
2023-10-06T04:36:33.204Z,100.00
2023-10-06T04:39:00.123Z,100.00
2023-10-06T04:41:27.348Z,100.00
2023-10-06T04:43:54.248Z,100.00
2023-10-06T04:46:21.835Z,100.00
2023-10-06T04:48:51.842Z,100.00
2023-10-06T04:51:19.829Z,100.00
2023-10-06T04:53:47.196Z,100.00
2023-10-06T04:56:15.325Z,100.00
2023-10-06T04:58:43.625Z,100.00
2023-10-06T05:01:12.965Z,100.00
2023-10-06T05:03:46.345Z,100.00
2023-10-06T05:06:15.250Z,100.00
2023-10-06T05:08:50.502Z,100.00
2023-10-06T05:11:25.083Z,100.00
2023-10-06T05:13:54.972Z,100.00
2023-10-06T05:16:24.856Z,100.00
2023-10-06T05:18:54.400Z,100.00
2023-10-06T05:21:21.884Z,100.00
2023-10-06T05:23:48.896Z,100.00
2023-10-06T05:26:17.594Z,100.00
2023-10-06T05:28:45.349Z,100.00
2023-10-06T05:31:13.862Z,100.00
2023-10-06T05:33:43.974Z,99.46
2023-10-06T05:36:12.417Z,96.74
2023-10-06T05:38:40.869Z,94.90
2023-10-06T05:41:13.389Z,94.95
2023-10-06T05:43:41.873Z,91.86
2023-10-06T05:46:10.589Z,89.79
2023-10-06T05:48:37.888Z,88.34
2023-10-06T05:51:11.361Z,90.28
2023-10-06T05:53:42.682Z,86.00
2023-10-06T05:56:10.260Z,86.28
2023-10-06T05:58:41.617Z,84.46
2023-10-06T06:01:14.226Z,81.16
2023-10-06T06:03:48.371Z,82.37
2023-10-06T06:06:16.363Z,83.02
2023-10-06T06:08:48.760Z,85.25
2023-10-06T06:11:17.865Z,86.63
2023-10-06T06:13:48.280Z,85.48
2023-10-06T06:16:20.426Z,86.57
2023-10-06T06:18:49.285Z,83.99
2023-10-06T06:21:17.811Z,88.21
2023-10-06T06:23:47.659Z,82.49
2023-10-06T06:26:18.452Z,78.79
2023-10-06T06:28:46.067Z,78.13
2023-10-06T06:31:19.561Z,79.73
2023-10-06T06:33:57.879Z,83.40
2023-10-06T06:36:27.154Z,86.90
2023-10-06T06:38:57.025Z,89.85
2023-10-06T06:41:24.348Z,92.56
2023-10-06T06:43:55.905Z,94.64
2023-10-06T06:46:22.986Z,96.36
2023-10-06T06:48:50.272Z,97.31
2023-10-06T06:51:17.680Z,99.26
2023-10-06T06:53:44.561Z,100.00
2023-10-06T06:56:12.287Z,100.00
2023-10-06T06:58:39.946Z,100.00
2023-10-06T07:01:16.007Z,100.00
2023-10-06T07:03:43.669Z,100.00
2023-10-06T07:06:17.644Z,100.00
2023-10-06T07:08:50.938Z,100.00
2023-10-06T07:11:18.377Z,100.00
2023-10-06T07:13:46.964Z,100.00
2023-10-06T07:16:15.987Z,100.00
2023-10-06T07:18:43.056Z,100.00
2023-10-06T07:21:11.508Z,100.00
2023-10-06T07:23:41.251Z,100.00
2023-10-06T07:26:15.046Z,100.00
2023-10-06T07:28:42.268Z,100.00
2023-10-06T07:31:14.577Z,100.00
2023-10-06T07:33:45.232Z,100.00
2023-10-06T07:36:18.798Z,100.00
2023-10-06T07:38:46.183Z,100.00
2023-10-06T07:41:26.557Z,100.00
2023-10-06T07:43:54.159Z,100.00
2023-10-06T07:46:21.539Z,100.00
2023-10-06T07:48:48.586Z,99.12
2023-10-06T07:51:17.669Z,100.00
2023-10-06T07:53:44.697Z,100.00
2023-10-06T07:56:13.169Z,98.22
2023-10-06T07:58:44.740Z,97.98
2023-10-06T08:01:14.510Z,98.39
2023-10-06T08:03:42.832Z,99.58
2023-10-06T08:06:12.158Z,100.00
2023-10-06T08:08:39.676Z,100.00
2023-10-06T08:11:07.735Z,97.94
2023-10-06T08:13:35.230Z,97.48
2023-10-06T08:16:03.281Z,96.40
2023-10-06T08:18:31.395Z,93.79
2023-10-06T08:21:02.200Z,94.27
2023-10-06T08:23:36.918Z,94.90
2023-10-06T08:26:09.375Z,92.43
2023-10-06T08:28:36.452Z,91.71
2023-10-06T08:31:04.695Z,91.58
2023-10-06T08:33:32.984Z,91.17
2023-10-06T08:36:03.048Z,89.58
2023-10-06T08:38:31.681Z,87.94
2023-10-06T08:41:03.505Z,85.66
2023-10-06T08:43:31.259Z,84.38
2023-10-06T08:46:01.362Z,83.75
2023-10-06T08:48:33.233Z,82.45
2023-10-06T08:51:06.498Z,80.87
2023-10-06T08:53:38.414Z,80.42
2023-10-06T08:56:06.694Z,80.62
2023-10-06T08:58:36.555Z,82.24
2023-10-06T09:01:07.127Z,80.66
2023-10-06T09:03:34.866Z,82.88
2023-10-06T09:06:04.148Z,73.88
2023-10-06T09:08:41.220Z,71.07
2023-10-06T09:11:08.474Z,67.89
2023-10-06T09:13:35.424Z,66.03
2023-10-06T09:16:04.891Z,64.02
2023-10-06T09:18:35.953Z,61.22
2023-10-06T09:21:22.826Z,62.56
2023-10-06T09:23:50.822Z,65.01
2023-10-06T09:26:30.788Z,66.73
2023-10-06T09:29:02.975Z,69.10
2023-10-06T09:31:39.049Z,63.18
2023-10-06T09:34:09.619Z,56.87
2023-10-06T09:36:44.168Z,55.53
2023-10-06T09:39:21.435Z,54.32
2023-10-06T09:41:50.309Z,56.22
2023-10-06T09:47:10.035Z,56.03
2023-10-06T09:49:38.762Z,56.93
2023-10-06T09:52:07.122Z,58.23
2023-10-06T09:54:36.949Z,60.49
2023-10-06T09:57:04.659Z,61.32
2023-10-06T09:59:34.126Z,60.21
2023-10-06T10:02:06.586Z,60.82
2023-10-06T10:04:34.603Z,62.81
2023-10-06T10:07:03.552Z,58.52
2023-10-06T10:09:36.233Z,58.11
2023-10-06T10:12:29.527Z,58.66
2023-10-06T10:15:01.089Z,56.00
2023-10-06T10:17:36.898Z,57.05
2023-10-06T10:20:10.931Z,57.44
2023-10-06T10:22:41.919Z,51.74
2023-10-06T10:27:39.661Z,51.66
2023-10-06T10:30:11.604Z,52.25
2023-10-06T10:32:43.011Z,53.49
2023-10-06T10:35:18.180Z,53.17
2023-10-06T10:38:05.608Z,52.96
2023-10-06T10:40:48.479Z,52.65
2023-10-06T10:43:15.947Z,50.98
2023-10-06T10:45:46.559Z,50.07
2023-10-06T10:48:15.233Z,49.79
2023-10-06T10:50:55.306Z,47.90
2023-10-06T10:53:22.484Z,48.80
2023-10-06T10:55:51.262Z,50.10
2023-10-06T10:58:45.924Z,50.07
2023-10-06T11:01:31.260Z,51.28
2023-10-06T11:04:14.064Z,54.11
2023-10-06T11:06:44.028Z,54.63
2023-10-06T11:09:27.833Z,53.73
2023-10-06T11:12:07.615Z,50.13
2023-10-06T11:14:44.635Z,46.84
2023-10-06T11:17:13.331Z,45.56
2023-10-06T11:19:41.250Z,46.12
2023-10-06T11:22:20.582Z,47.71
2023-10-06T11:24:48.959Z,49.83
2023-10-06T11:27:23.928Z,49.33
2023-10-06T11:29:58.378Z,48.57
2023-10-06T11:32:27.446Z,48.05
2023-10-06T11:34:54.534Z,41.67
2023-10-06T11:37:26.354Z,38.10
2023-10-06T11:39:55.051Z,39.03
2023-10-06T11:42:25.662Z,38.12
2023-10-06T11:44:54.203Z,36.47
2023-10-06T11:47:42.795Z,36.57
2023-10-06T11:50:24.436Z,35.90
2023-10-06T11:52:52.503Z,36.33
2023-10-06T11:55:35.493Z,34.62
2023-10-06T11:58:06.261Z,34.16
2023-10-06T12:00:41.391Z,35.60
2023-10-06T12:03:12.815Z,36.76
2023-10-06T12:05:45.098Z,35.52
2023-10-06T12:08:13.924Z,34.13
2023-10-06T12:10:51.941Z,31.72
2023-10-06T12:13:20.077Z,31.07
2023-10-06T12:15:47.680Z,30.37
2023-10-06T12:18:16.733Z,30.77
2023-10-06T12:20:43.725Z,32.76
2023-10-06T12:23:11.787Z,34.76
2023-10-06T12:25:38.982Z,34.77
2023-10-06T12:28:06.705Z,36.02
2023-10-06T12:30:33.676Z,38.54
2023-10-06T12:33:00.935Z,37.40
2023-10-06T12:35:30.623Z,37.05
2023-10-06T12:37:58.269Z,35.01
2023-10-06T12:40:25.348Z,32.42
2023-10-06T12:42:53.822Z,33.34
2023-10-06T12:45:20.737Z,34.25
2023-10-06T12:47:49.530Z,35.10
2023-10-06T12:50:21.851Z,35.11
2023-10-06T12:52:53.740Z,34.20
2023-10-06T12:55:23.482Z,32.92
2023-10-06T12:57:51.961Z,32.23
2023-10-06T13:00:21.073Z,30.78
2023-10-06T13:02:51.637Z,30.59
2023-10-06T13:05:20.364Z,31.22
2023-10-06T13:07:48.733Z,31.97
2023-10-06T13:10:24.430Z,34.01
2023-10-06T13:12:52.520Z,35.40
2023-10-06T13:15:20.788Z,37.70
2023-10-06T13:17:51.139Z,38.75
2023-10-06T13:20:18.198Z,38.96
2023-10-06T13:22:49.064Z,40.08
2023-10-06T13:25:17.670Z,41.52
2023-10-06T13:27:48.857Z,42.96
2023-10-06T13:30:18.203Z,45.11
2023-10-06T13:32:49.622Z,45.93
2023-10-06T13:35:20.596Z,46.15
2023-10-06T13:37:49.369Z,45.44
2023-10-06T13:40:19.156Z,44.72
2023-10-06T13:42:51.322Z,44.37
2023-10-06T13:45:23.322Z,44.75
2023-10-06T13:47:55.204Z,45.43
2023-10-06T13:50:28.890Z,45.28
2023-10-06T13:52:56.894Z,46.38
2023-10-06T13:55:25.557Z,45.91
2023-10-06T13:57:54.156Z,45.73
2023-10-06T14:00:40.191Z,46.42
2023-10-06T14:03:15.534Z,47.35
2023-10-06T14:05:44.795Z,47.33
2023-10-06T14:08:19.149Z,49.15
2023-10-06T14:10:46.758Z,49.69
2023-10-06T14:13:14.325Z,50.72
2023-10-06T14:15:50.821Z,51.92
2023-10-06T14:18:21.336Z,52.72
2023-10-06T14:20:53.509Z,53.39
2023-10-06T14:23:25.702Z,52.83
2023-10-06T14:25:57.475Z,54.22
2023-10-06T14:28:24.944Z,55.27
2023-10-06T14:30:52.687Z,54.92
2023-10-06T14:33:40.257Z,55.22
2023-10-06T14:36:07.428Z,55.30
2023-10-06T14:38:45.306Z,56.92
2023-10-06T14:41:20.406Z,57.38
2023-10-06T14:44:10.858Z,57.22
2023-10-06T14:46:40.138Z,58.10
2023-10-06T14:49:14.375Z,58.54
2023-10-06T14:51:42.951Z,59.15
2023-10-06T14:54:12.359Z,59.78
2023-10-06T14:56:39.934Z,59.97
2023-10-06T14:59:11.360Z,59.36
2023-10-06T15:01:42.299Z,59.28
2023-10-06T15:04:14.476Z,59.72
2023-10-06T15:06:42.411Z,61.82
2023-10-06T15:09:15.255Z,63.08
2023-10-06T15:11:42.164Z,64.75
2023-10-06T15:14:12.661Z,66.31
2023-10-06T15:16:39.925Z,67.46
2023-10-06T15:19:07.999Z,68.34
2023-10-06T15:21:40.462Z,69.28
2023-10-06T15:24:11.920Z,70.49
2023-10-06T15:26:43.597Z,71.37
2023-10-06T15:29:14.993Z,72.36
2023-10-06T15:31:43.368Z,73.83
2023-10-06T15:34:10.796Z,75.16
2023-10-06T15:36:38.160Z,75.92
2023-10-06T15:39:19.051Z,77.50
2023-10-06T15:41:50.244Z,78.36
2023-10-06T15:44:18.797Z,81.10
2023-10-06T15:46:47.007Z,83.80
2023-10-06T15:49:20.167Z,84.18
2023-10-06T15:54:35.399Z,87.38
2023-10-06T15:57:02.267Z,87.79
2023-10-06T15:59:31.275Z,89.11
2023-10-06T16:02:00.727Z,91.66
2023-10-06T16:04:28.310Z,93.68
2023-10-06T16:06:59.365Z,96.97
2023-10-06T16:09:26.926Z,98.17
2023-10-06T16:11:54.260Z,100.00
2023-10-06T16:14:21.724Z,100.00
2023-10-06T16:16:49.148Z,100.00
2023-10-06T16:19:18.611Z,100.00
2023-10-06T16:21:45.575Z,100.00
2023-10-06T16:24:14.844Z,100.00
2023-10-06T16:26:43.815Z,100.00
2023-10-06T16:29:13.771Z,100.00
2023-10-06T16:31:41.351Z,100.00
2023-10-06T16:34:09.701Z,100.00
2023-10-06T16:36:38.529Z,100.00
2023-10-06T16:39:17.899Z,100.00
2023-10-06T16:41:46.044Z,100.00
2023-10-06T16:44:14.016Z,100.00
2023-10-06T16:46:41.173Z,100.00
2023-10-06T16:49:08.712Z,100.00
2023-10-06T16:51:35.838Z,100.00
2023-10-06T16:54:03.066Z,100.00
2023-10-06T16:56:30.043Z,100.00
2023-10-06T16:58:57.296Z,100.00
2023-10-06T17:01:25.151Z,100.00
2023-10-06T17:03:53.453Z,100.00
2023-10-06T17:06:21.181Z,100.00
2023-10-06T17:08:48.950Z,100.00
2023-10-06T17:11:19.850Z,100.00
2023-10-06T17:13:48.794Z,100.00
2023-10-06T17:16:16.053Z,100.00
2023-10-06T17:18:43.468Z,100.00
2023-10-06T17:21:17.430Z,100.00
2023-10-06T17:23:45.808Z,100.00
2023-10-06T17:26:16.258Z,100.00
2023-10-06T17:28:44.177Z,100.00
2023-10-06T17:31:16.483Z,100.00
2023-10-06T17:33:44.882Z,100.00
2023-10-06T17:36:11.922Z,100.00
2023-10-06T17:38:39.081Z,100.00
2023-10-06T17:41:12.284Z,100.00
2023-10-06T17:43:39.800Z,100.00
2023-10-06T17:46:06.863Z,100.00
2023-10-06T17:48:34.520Z,100.00
2023-10-06T17:51:02.256Z,100.00
2023-10-06T17:53:29.512Z,100.00
2023-10-06T17:55:57.556Z,100.00
2023-10-06T17:58:24.895Z,100.00
2023-10-06T18:00:52.120Z,100.00
2023-10-06T18:03:19.465Z,100.00
2023-10-06T18:05:53.737Z,100.00
2023-10-06T18:08:21.867Z,100.00
2023-10-06T18:10:49.259Z,100.00
2023-10-06T18:13:17.206Z,100.00
2023-10-06T18:15:47.963Z,100.00
2023-10-06T18:18:15.254Z,100.00
2023-10-06T18:20:44.366Z,100.00
2023-10-06T18:23:14.476Z,100.00
2023-10-06T18:25:41.701Z,100.00
2023-10-06T18:28:09.116Z,100.00
2023-10-06T18:30:36.250Z,100.00
2023-10-06T18:33:04.983Z,100.00
2023-10-06T18:35:35.334Z,100.00
2023-10-06T18:38:02.632Z,100.00
2023-10-06T18:40:29.507Z,100.00
2023-10-06T18:42:56.670Z,100.00
2023-10-06T18:45:23.933Z,100.00
2023-10-06T18:47:51.619Z,100.00
2023-10-06T18:50:19.236Z,100.00
2023-10-06T18:52:50.846Z,100.00
2023-10-06T18:55:19.418Z,100.00
2023-10-06T18:57:46.764Z,100.00
2023-10-06T19:00:14.062Z,100.00
2023-10-06T19:02:42.578Z,100.00
2023-10-06T19:05:11.009Z,100.00
2023-10-06T19:07:39.505Z,100.00
2023-10-06T19:10:10.952Z,100.00
2023-10-06T19:12:38.251Z,100.00
2023-10-06T19:15:09.401Z,100.00
2023-10-06T19:17:38.263Z,100.00
2023-10-06T19:20:08.698Z,100.00
2023-10-06T19:22:36.999Z,100.00
2023-10-06T19:25:05.454Z,100.00
2023-10-06T19:27:34.761Z,100.00
2023-10-06T19:30:01.776Z,100.00
2023-10-06T19:32:29.076Z,100.00
2023-10-06T19:34:56.222Z,100.00
2023-10-06T19:37:23.455Z,100.00
2023-10-06T19:39:50.363Z,100.00
2023-10-06T19:42:18.160Z,100.00
2023-10-06T19:44:45.031Z,100.00
2023-10-06T19:47:13.717Z,100.00
2023-10-06T19:49:41.072Z,100.00
2023-10-06T19:52:09.537Z,100.00
2023-10-06T19:54:37.028Z,100.00
2023-10-06T19:57:04.350Z,100.00
2023-10-06T19:59:33.939Z,100.00
2023-10-06T20:02:04.307Z,100.00
2023-10-06T20:04:31.190Z,100.00
2023-10-06T20:06:58.366Z,100.00
2023-10-06T20:09:25.446Z,100.00
2023-10-06T20:11:53.422Z,100.00
2023-10-06T20:14:20.866Z,100.00
2023-10-06T20:16:49.146Z,100.00
2023-10-06T20:19:18.864Z,100.00
2023-10-06T20:21:46.424Z,100.00
2023-10-06T20:24:13.849Z,100.00
2023-10-06T20:26:44.716Z,100.00
2023-10-06T20:29:12.048Z,100.00
2023-10-06T20:31:40.346Z,100.00
2023-10-06T20:34:08.275Z,100.00
2023-10-06T20:36:35.645Z,100.00
2023-10-06T20:39:10.101Z,100.00
2023-10-06T20:41:38.877Z,100.00
2023-10-06T20:44:13.349Z,100.00
2023-10-06T20:46:43.854Z,100.00
2023-10-06T20:49:15.013Z,100.00
2023-10-06T20:51:42.579Z,100.00
2023-10-06T20:54:09.899Z,100.00
2023-10-06T20:56:39.077Z,100.00
2023-10-06T20:59:08.712Z,100.00
2023-10-06T21:01:36.221Z,100.00
2023-10-06T21:04:06.367Z,100.00
2023-10-06T21:06:36.745Z,100.00
2023-10-06T21:09:07.008Z,100.00
2023-10-06T21:11:35.690Z,100.00
2023-10-06T21:14:02.646Z,100.00
2023-10-06T21:16:30.226Z,100.00
2023-10-06T21:18:57.184Z,100.00
2023-10-06T21:21:24.307Z,100.00
2023-10-06T21:23:51.307Z,100.00
2023-10-06T21:26:18.393Z,100.00
2023-10-06T21:28:46.004Z,100.00
2023-10-06T21:31:13.258Z,100.00
2023-10-06T21:33:40.089Z,100.00
2023-10-06T21:36:07.786Z,100.00
2023-10-06T21:38:34.701Z,100.00
2023-10-06T21:41:02.171Z,100.00
2023-10-06T21:43:29.160Z,100.00
2023-10-06T21:45:56.354Z,100.00
2023-10-06T21:48:23.238Z,100.00
2023-10-06T21:50:52.187Z,100.00
2023-10-06T21:53:19.067Z,100.00
2023-10-06T21:55:46.326Z,100.00
2023-10-06T21:58:13.231Z,100.00
2023-10-06T22:00:47.451Z,100.00
2023-10-06T22:03:14.550Z,100.00
2023-10-06T22:05:41.938Z,100.00
2023-10-06T22:08:09.792Z,100.00
2023-10-06T22:10:37.483Z,100.00
2023-10-06T22:13:04.664Z,100.00
2023-10-06T22:15:31.873Z,100.00
2023-10-06T22:18:01.656Z,100.00
2023-10-06T22:20:32.408Z,100.00
2023-10-06T22:23:00.421Z,100.00
2023-10-06T22:25:31.082Z,100.00
2023-10-06T22:27:59.237Z,100.00
2023-10-06T22:30:27.174Z,100.00
2023-10-06T22:32:54.498Z,100.00
2023-10-06T22:35:26.312Z,100.00
2023-10-06T22:37:53.381Z,100.00
2023-10-06T22:40:20.664Z,100.00
2023-10-06T22:42:49.043Z,100.00
2023-10-06T22:45:20.243Z,100.00
2023-10-06T22:47:50.836Z,100.00
2023-10-06T22:50:20.410Z,100.00
2023-10-06T22:52:51.890Z,100.00
2023-10-06T22:55:20.218Z,100.00
2023-10-06T22:57:49.001Z,100.00
2023-10-06T23:00:19.402Z,100.00
2023-10-06T23:02:48.784Z,100.00
2023-10-06T23:05:16.399Z,100.00
2023-10-06T23:07:44.048Z,100.00
2023-10-06T23:10:14.099Z,100.00
2023-10-06T23:12:45.605Z,100.00
2023-10-06T23:15:13.219Z,100.00
2023-10-06T23:17:41.951Z,100.00
2023-10-06T23:20:23.316Z,100.00
2023-10-06T23:22:59.668Z,100.00
2023-10-06T23:25:39.524Z,100.00
2023-10-06T23:28:08.280Z,100.00
2023-10-06T23:30:36.340Z,100.00
2023-10-06T23:33:04.441Z,100.00
2023-10-06T23:35:32.622Z,100.00
2023-10-06T23:38:01.170Z,100.00
2023-10-06T23:40:34.745Z,100.00
2023-10-06T23:43:01.720Z,100.00
2023-10-06T23:45:32.320Z,100.00
2023-10-06T23:48:01.048Z,100.00
2023-10-06T23:50:31.305Z,100.00
2023-10-06T23:53:01.872Z,100.00
2023-10-06T23:55:29.792Z,100.00
2023-10-06T23:57:56.885Z,100.00
